sensor_id;sensor_type;location;lat;lon;timestamp;P1;durP1;ratioP1;P2;durP2;ratioP2
62673;SDS011;62269;47.594;17.638;2023-02-02T00:00:46;6.55;;;4.90;;
62673;SDS011;62269;47.594;17.638;2023-02-02T00:01:33;6.00;;;5.18;;
62673;SDS011;62269;47.594;17.638;2023-02-02T00:02:20;5.40;;;4.60;;
62673;SDS011;62269;47.594;17.638;2023-02-02T00:03:07;7.18;;;4.68;;
62673;SDS011;62269;47.594;17.638;2023-02-02T00:03:56;6.85;;;5.00;;
62673;SDS011;62269;47.594;17.638;2023-02-02T00:04:43;8.23;;;5.53;;
62673;SDS011;62269;47.594;17.638;2023-02-02T00:05:30;6.32;;;4.78;;
62673;SDS011;62269;47.594;17.638;2023-02-02T00:06:20;5.87;;;5.28;;
62673;SDS011;62269;47.594;17.638;2023-02-02T00:07:08;6.55;;;5.40;;
62673;SDS011;62269;47.594;17.638;2023-02-02T00:07:55;6.32;;;4.80;;
62673;SDS011;62269;47.594;17.638;2023-02-02T00:08:43;6.18;;;4.80;;
62673;SDS011;62269;47.594;17.638;2023-02-02T00:09:30;7.03;;;5.18;;
62673;SDS011;62269;47.594;17.638;2023-02-02T00:10:18;8.25;;;5.47;;
62673;SDS011;62269;47.594;17.638;2023-02-02T00:11:05;6.28;;;4.85;;
62673;SDS011;62269;47.594;17.638;2023-02-02T00:11:52;8.10;;;5.53;;
62673;SDS011;62269;47.594;17.638;2023-02-02T00:12:39;6.10;;;5.20;;
62673;SDS011;62269;47.594;17.638;2023-02-02T00:13:26;6.18;;;4.68;;
62673;SDS011;62269;47.594;17.638;2023-02-02T00:14:13;6.85;;;5.35;;
62673;SDS011;62269;47.594;17.638;2023-02-02T00:15:00;7.35;;;4.90;;
62673;SDS011;62269;47.594;17.638;2023-02-02T00:15:47;5.82;;;4.70;;
62673;SDS011;62269;47.594;17.638;2023-02-02T00:16:35;6.43;;;4.85;;
62673;SDS011;62269;47.594;17.638;2023-02-02T00:17:23;6.22;;;4.62;;
62673;SDS011;62269;47.594;17.638;2023-02-02T00:18:10;6.47;;;4.68;;
62673;SDS011;62269;47.594;17.638;2023-02-02T00:19:02;5.20;;;4.30;;
62673;SDS011;62269;47.594;17.638;2023-02-02T00:19:53;4.78;;;3.92;;
62673;SDS011;62269;47.594;17.638;2023-02-02T00:20:40;5.80;;;4.32;;
62673;SDS011;62269;47.594;17.638;2023-02-02T00:21:27;8.15;;;4.70;;
62673;SDS011;62269;47.594;17.638;2023-02-02T00:22:14;5.65;;;4.18;;
62673;SDS011;62269;47.594;17.638;2023-02-02T00:23:02;4.72;;;4.00;;
62673;SDS011;62269;47.594;17.638;2023-02-02T00:23:49;6.10;;;4.25;;
62673;SDS011;62269;47.594;17.638;2023-02-02T00:24:36;5.30;;;4.07;;
62673;SDS011;62269;47.594;17.638;2023-02-02T00:25:23;5.15;;;4.00;;
62673;SDS011;62269;47.594;17.638;2023-02-02T00:26:11;6.10;;;3.83;;
62673;SDS011;62269;47.594;17.638;2023-02-02T00:26:58;3.83;;;3.53;;
62673;SDS011;62269;47.594;17.638;2023-02-02T00:27:45;4.32;;;3.47;;
62673;SDS011;62269;47.594;17.638;2023-02-02T00:28:32;4.35;;;3.92;;
62673;SDS011;62269;47.594;17.638;2023-02-02T00:29:20;3.75;;;3.00;;
62673;SDS011;62269;47.594;17.638;2023-02-02T00:30:09;3.50;;;3.20;;
62673;SDS011;62269;47.594;17.638;2023-02-02T00:30:56;6.07;;;3.53;;
62673;SDS011;62269;47.594;17.638;2023-02-02T00:31:43;3.58;;;3.15;;
62673;SDS011;62269;47.594;17.638;2023-02-02T00:32:31;2.85;;;2.65;;
62673;SDS011;62269;47.594;17.638;2023-02-02T00:33:18;4.28;;;3.20;;
62673;SDS011;62269;47.594;17.638;2023-02-02T00:34:04;4.25;;;2.92;;
62673;SDS011;62269;47.594;17.638;2023-02-02T00:34:51;5.35;;;2.78;;
62673;SDS011;62269;47.594;17.638;2023-02-02T00:35:39;3.12;;;2.72;;
62673;SDS011;62269;47.594;17.638;2023-02-02T00:36:26;2.80;;;2.60;;
62673;SDS011;62269;47.594;17.638;2023-02-02T00:37:13;3.00;;;2.70;;
62673;SDS011;62269;47.594;17.638;2023-02-02T00:38:00;2.72;;;2.53;;
62673;SDS011;62269;47.594;17.638;2023-02-02T00:38:48;3.22;;;2.80;;
62673;SDS011;62269;47.594;17.638;2023-02-02T00:39:36;2.83;;;2.62;;
62673;SDS011;62269;47.594;17.638;2023-02-02T00:40:22;5.82;;;2.97;;
62673;SDS011;62269;47.594;17.638;2023-02-02T00:41:10;2.53;;;2.37;;
62673;SDS011;62269;47.594;17.638;2023-02-02T00:41:57;2.47;;;2.28;;
62673;SDS011;62269;47.594;17.638;2023-02-02T00:42:44;2.20;;;2.08;;
62673;SDS011;62269;47.594;17.638;2023-02-02T00:43:35;2.95;;;2.72;;
62673;SDS011;62269;47.594;17.638;2023-02-02T00:44:22;2.35;;;2.05;;
62673;SDS011;62269;47.594;17.638;2023-02-02T00:45:28;2.17;;;1.98;;
62673;SDS011;62269;47.594;17.638;2023-02-02T00:46:16;3.62;;;2.70;;
62673;SDS011;62269;47.594;17.638;2023-02-02T00:47:04;3.20;;;2.40;;
62673;SDS011;62269;47.594;17.638;2023-02-02T00:47:51;2.60;;;2.40;;
62673;SDS011;62269;47.594;17.638;2023-02-02T00:48:38;3.42;;;2.70;;
62673;SDS011;62269;47.594;17.638;2023-02-02T00:49:25;2.65;;;2.45;;
62673;SDS011;62269;47.594;17.638;2023-02-02T00:50:14;2.55;;;2.35;;
62673;SDS011;62269;47.594;17.638;2023-02-02T00:51:02;2.65;;;2.45;;
62673;SDS011;62269;47.594;17.638;2023-02-02T00:51:49;3.03;;;2.80;;
62673;SDS011;62269;47.594;17.638;2023-02-02T00:52:36;2.72;;;2.50;;
62673;SDS011;62269;47.594;17.638;2023-02-02T00:53:23;2.67;;;2.47;;
62673;SDS011;62269;47.594;17.638;2023-02-02T00:54:10;2.95;;;2.58;;
62673;SDS011;62269;47.594;17.638;2023-02-02T00:54:57;3.37;;;2.58;;
62673;SDS011;62269;47.594;17.638;2023-02-02T00:55:44;2.75;;;2.53;;
62673;SDS011;62269;47.594;17.638;2023-02-02T00:56:31;2.55;;;2.35;;
62673;SDS011;62269;47.594;17.638;2023-02-02T00:57:18;3.72;;;2.87;;
62673;SDS011;62269;47.594;17.638;2023-02-02T00:58:05;2.83;;;2.62;;
62673;SDS011;62269;47.594;17.638;2023-02-02T00:58:52;2.53;;;2.30;;
62673;SDS011;62269;47.594;17.638;2023-02-02T00:59:39;3.30;;;2.62;;
62673;SDS011;62269;47.594;17.638;2023-02-02T01:00:27;3.08;;;2.85;;
62673;SDS011;62269;47.594;17.638;2023-02-02T01:01:15;2.65;;;2.45;;
62673;SDS011;62269;47.594;17.638;2023-02-02T01:02:03;3.80;;;3.17;;
62673;SDS011;62269;47.594;17.638;2023-02-02T01:02:50;3.55;;;3.00;;
62673;SDS011;62269;47.594;17.638;2023-02-02T01:03:38;4.80;;;3.10;;
62673;SDS011;62269;47.594;17.638;2023-02-02T01:04:25;4.45;;;3.10;;
62673;SDS011;62269;47.594;17.638;2023-02-02T01:05:12;3.20;;;2.90;;
62673;SDS011;62269;47.594;17.638;2023-02-02T01:05:59;4.10;;;3.20;;
62673;SDS011;62269;47.594;17.638;2023-02-02T01:06:46;4.50;;;3.35;;
62673;SDS011;62269;47.594;17.638;2023-02-02T01:07:33;3.95;;;3.40;;
62673;SDS011;62269;47.594;17.638;2023-02-02T01:08:20;4.12;;;3.40;;
62673;SDS011;62269;47.594;17.638;2023-02-02T01:09:07;6.55;;;3.20;;
62673;SDS011;62269;47.594;17.638;2023-02-02T01:09:54;5.28;;;3.45;;
62673;SDS011;62269;47.594;17.638;2023-02-02T01:10:41;5.15;;;3.10;;
62673;SDS011;62269;47.594;17.638;2023-02-02T01:11:28;4.30;;;3.30;;
62673;SDS011;62269;47.594;17.638;2023-02-02T01:12:16;4.03;;;3.42;;
62673;SDS011;62269;47.594;17.638;2023-02-02T01:13:03;5.20;;;3.33;;
62673;SDS011;62269;47.594;17.638;2023-02-02T01:13:50;3.80;;;3.22;;
62673;SDS011;62269;47.594;17.638;2023-02-02T01:14:37;3.40;;;3.10;;
62673;SDS011;62269;47.594;17.638;2023-02-02T01:15:24;3.83;;;3.30;;
62673;SDS011;62269;47.594;17.638;2023-02-02T01:16:11;3.33;;;2.87;;
62673;SDS011;62269;47.594;17.638;2023-02-02T01:16:58;3.53;;;2.90;;
62673;SDS011;62269;47.594;17.638;2023-02-02T01:17:45;4.18;;;3.20;;
62673;SDS011;62269;47.594;17.638;2023-02-02T01:18:32;3.97;;;3.12;;
62673;SDS011;62269;47.594;17.638;2023-02-02T01:19:19;3.12;;;2.83;;
62673;SDS011;62269;47.594;17.638;2023-02-02T01:20:07;5.85;;;3.20;;
62673;SDS011;62269;47.594;17.638;2023-02-02T01:21:01;4.87;;;3.12;;
62673;SDS011;62269;47.594;17.638;2023-02-02T01:21:53;4.32;;;2.87;;
62673;SDS011;62269;47.594;17.638;2023-02-02T01:22:40;2.80;;;2.60;;
62673;SDS011;62269;47.594;17.638;2023-02-02T01:23:27;3.75;;;2.87;;
62673;SDS011;62269;47.594;17.638;2023-02-02T01:24:14;3.92;;;2.67;;
62673;SDS011;62269;47.594;17.638;2023-02-02T01:25:01;2.78;;;2.33;;
62673;SDS011;62269;47.594;17.638;2023-02-02T01:25:57;3.30;;;2.30;;
62673;SDS011;62269;47.594;17.638;2023-02-02T01:26:45;4.00;;;2.83;;
62673;SDS011;62269;47.594;17.638;2023-02-02T01:27:32;5.25;;;2.40;;
62673;SDS011;62269;47.594;17.638;2023-02-02T01:28:19;2.80;;;2.50;;
62673;SDS011;62269;47.594;17.638;2023-02-02T01:29:07;3.83;;;2.30;;
62673;SDS011;62269;47.594;17.638;2023-02-02T01:29:54;4.40;;;2.80;;
62673;SDS011;62269;47.594;17.638;2023-02-02T01:30:40;5.65;;;2.70;;
62673;SDS011;62269;47.594;17.638;2023-02-02T01:31:27;3.10;;;2.47;;
62673;SDS011;62269;47.594;17.638;2023-02-02T01:32:14;2.40;;;2.20;;
62673;SDS011;62269;47.594;17.638;2023-02-02T01:33:01;4.25;;;2.22;;
62673;SDS011;62269;47.594;17.638;2023-02-02T01:33:48;3.08;;;2.08;;
62673;SDS011;62269;47.594;17.638;2023-02-02T01:34:35;3.00;;;2.00;;
62673;SDS011;62269;47.594;17.638;2023-02-02T01:35:27;1.85;;;1.75;;
62673;SDS011;62269;47.594;17.638;2023-02-02T01:36:15;2.85;;;2.65;;
62673;SDS011;62269;47.594;17.638;2023-02-02T01:37:06;5.43;;;2.75;;
62673;SDS011;62269;47.594;17.638;2023-02-02T01:37:54;2.83;;;2.28;;
62673;SDS011;62269;47.594;17.638;2023-02-02T01:38:41;2.35;;;2.12;;
62673;SDS011;62269;47.594;17.638;2023-02-02T01:39:28;2.37;;;2.17;;
62673;SDS011;62269;47.594;17.638;2023-02-02T01:40:15;2.60;;;2.12;;
62673;SDS011;62269;47.594;17.638;2023-02-02T01:41:02;1.85;;;1.75;;
62673;SDS011;62269;47.594;17.638;2023-02-02T01:42:39;2.50;;;2.30;;
62673;SDS011;62269;47.594;17.638;2023-02-02T01:43:27;3.42;;;1.87;;
62673;SDS011;62269;47.594;17.638;2023-02-02T01:45:40;2.67;;;2.30;;
62673;SDS011;62269;47.594;17.638;2023-02-02T01:46:28;2.83;;;1.75;;
62673;SDS011;62269;47.594;17.638;2023-02-02T01:47:17;3.37;;;2.03;;
62673;SDS011;62269;47.594;17.638;2023-02-02T01:48:06;2.05;;;1.92;;
62673;SDS011;62269;47.594;17.638;2023-02-02T01:48:57;2.15;;;1.95;;
62673;SDS011;62269;47.594;17.638;2023-02-02T01:49:46;4.68;;;2.10;;
62673;SDS011;62269;47.594;17.638;2023-02-02T01:50:33;1.80;;;1.70;;
62673;SDS011;62269;47.594;17.638;2023-02-02T01:51:23;3.15;;;1.92;;
62673;SDS011;62269;47.594;17.638;2023-02-02T01:52:13;3.85;;;2.22;;
62673;SDS011;62269;47.594;17.638;2023-02-02T01:53:01;1.60;;;1.50;;
62673;SDS011;62269;47.594;17.638;2023-02-02T01:53:50;1.87;;;1.77;;
62673;SDS011;62269;47.594;17.638;2023-02-02T01:54:44;3.12;;;1.80;;
62673;SDS011;62269;47.594;17.638;2023-02-02T01:55:34;1.95;;;1.85;;
62673;SDS011;62269;47.594;17.638;2023-02-02T01:56:29;3.53;;;2.05;;
62673;SDS011;62269;47.594;17.638;2023-02-02T01:58:32;1.80;;;1.70;;
62673;SDS011;62269;47.594;17.638;2023-02-02T01:59:21;3.05;;;2.25;;
62673;SDS011;62269;47.594;17.638;2023-02-02T02:00:09;2.42;;;1.60;;
62673;SDS011;62269;47.594;17.638;2023-02-02T02:00:57;4.25;;;2.12;;
62673;SDS011;62269;47.594;17.638;2023-02-02T02:01:45;1.95;;;1.85;;
62673;SDS011;62269;47.594;17.638;2023-02-02T02:02:33;2.65;;;2.35;;
62673;SDS011;62269;47.594;17.638;2023-02-02T02:03:21;4.28;;;1.90;;
62673;SDS011;62269;47.594;17.638;2023-02-02T02:04:10;3.73;;;1.97;;
62673;SDS011;62269;47.594;17.638;2023-02-02T02:04:58;2.62;;;2.15;;
62673;SDS011;62269;47.594;17.638;2023-02-02T02:06:30;2.72;;;2.17;;
62673;SDS011;62269;47.594;17.638;2023-02-02T02:06:59;2.75;;;2.17;;
62673;SDS011;62269;47.594;17.638;2023-02-02T02:07:47;2.75;;;2.00;;
62673;SDS011;62269;47.594;17.638;2023-02-02T02:08:39;3.70;;;2.37;;
62673;SDS011;62269;47.594;17.638;2023-02-02T02:09:33;2.22;;;2.03;;
62673;SDS011;62269;47.594;17.638;2023-02-02T02:10:20;1.95;;;1.85;;
62673;SDS011;62269;47.594;17.638;2023-02-02T02:11:07;1.90;;;1.80;;
62673;SDS011;62269;47.594;17.638;2023-02-02T02:11:54;2.15;;;1.95;;
62673;SDS011;62269;47.594;17.638;2023-02-02T02:12:41;2.80;;;2.03;;
62673;SDS011;62269;47.594;17.638;2023-02-02T02:13:28;4.47;;;2.08;;
62673;SDS011;62269;47.594;17.638;2023-02-02T02:14:34;5.35;;;2.35;;
62673;SDS011;62269;47.594;17.638;2023-02-02T02:15:42;2.12;;;1.90;;
62673;SDS011;62269;47.594;17.638;2023-02-02T02:17:19;4.40;;;2.10;;
62673;SDS011;62269;47.594;17.638;2023-02-02T02:18:39;2.12;;;1.90;;
62673;SDS011;62269;47.594;17.638;2023-02-02T02:22:20;2.33;;;2.12;;
62673;SDS011;62269;47.594;17.638;2023-02-02T02:32:55;3.95;;;1.95;;
62673;SDS011;62269;47.594;17.638;2023-02-02T02:33:56;2.95;;;2.28;;
62673;SDS011;62269;47.594;17.638;2023-02-02T02:35:09;2.17;;;1.98;;
62673;SDS011;62269;47.594;17.638;2023-02-02T02:36:09;2.45;;;2.25;;
62673;SDS011;62269;47.594;17.638;2023-02-02T02:37:09;2.97;;;2.15;;
62673;SDS011;62269;47.594;17.638;2023-02-02T02:40:48;2.92;;;2.17;;
62673;SDS011;62269;47.594;17.638;2023-02-02T02:41:40;2.97;;;2.20;;
62673;SDS011;62269;47.594;17.638;2023-02-02T02:42:32;2.75;;;2.28;;
62673;SDS011;62269;47.594;17.638;2023-02-02T02:43:31;2.10;;;1.90;;
62673;SDS011;62269;47.594;17.638;2023-02-02T02:44:21;2.08;;;1.98;;
62673;SDS011;62269;47.594;17.638;2023-02-02T02:45:09;2.30;;;2.08;;
62673;SDS011;62269;47.594;17.638;2023-02-02T02:45:57;4.15;;;2.40;;
62673;SDS011;62269;47.594;17.638;2023-02-02T02:46:44;4.00;;;2.00;;
62673;SDS011;62269;47.594;17.638;2023-02-02T02:47:32;4.30;;;2.60;;
62673;SDS011;62269;47.594;17.638;2023-02-02T02:48:20;2.85;;;2.45;;
62673;SDS011;62269;47.594;17.638;2023-02-02T02:49:08;2.83;;;2.53;;
62673;SDS011;62269;47.594;17.638;2023-02-02T02:49:55;2.95;;;2.37;;
62673;SDS011;62269;47.594;17.638;2023-02-02T02:50:42;3.97;;;2.53;;
62673;SDS011;62269;47.594;17.638;2023-02-02T02:51:40;2.47;;;2.10;;
62673;SDS011;62269;47.594;17.638;2023-02-02T02:52:31;2.92;;;2.40;;
62673;SDS011;62269;47.594;17.638;2023-02-02T02:53:21;3.65;;;2.55;;
62673;SDS011;62269;47.594;17.638;2023-02-02T02:54:14;3.42;;;2.35;;
62673;SDS011;62269;47.594;17.638;2023-02-02T02:55:05;4.25;;;2.20;;
62673;SDS011;62269;47.594;17.638;2023-02-02T02:58:08;5.57;;;2.75;;
62673;SDS011;62269;47.594;17.638;2023-02-02T02:59:14;2.53;;;2.30;;
62673;SDS011;62269;47.594;17.638;2023-02-02T03:01:14;2.70;;;2.12;;
62673;SDS011;62269;47.594;17.638;2023-02-02T03:06:00;6.37;;;3.28;;
62673;SDS011;62269;47.594;17.638;2023-02-02T03:06:57;3.10;;;2.37;;
62673;SDS011;62269;47.594;17.638;2023-02-02T03:07:47;4.70;;;2.60;;
62673;SDS011;62269;47.594;17.638;2023-02-02T03:08:39;4.70;;;2.58;;
62673;SDS011;62269;47.594;17.638;2023-02-02T03:09:48;3.42;;;2.58;;
62673;SDS011;62269;47.594;17.638;2023-02-02T03:10:37;3.60;;;2.65;;
62673;SDS011;62269;47.594;17.638;2023-02-02T03:11:26;5.87;;;2.55;;
62673;SDS011;62269;47.594;17.638;2023-02-02T03:12:14;4.85;;;2.72;;
62673;SDS011;62269;47.594;17.638;2023-02-02T03:13:04;2.35;;;2.20;;
62673;SDS011;62269;47.594;17.638;2023-02-02T03:13:53;7.22;;;3.37;;
62673;SDS011;62269;47.594;17.638;2023-02-02T03:14:41;4.37;;;2.62;;
62673;SDS011;62269;47.594;17.638;2023-02-02T03:15:28;5.07;;;2.50;;
62673;SDS011;62269;47.594;17.638;2023-02-02T03:16:15;3.10;;;2.60;;
62673;SDS011;62269;47.594;17.638;2023-02-02T03:17:02;7.55;;;2.55;;
62673;SDS011;62269;47.594;17.638;2023-02-02T03:17:49;5.10;;;3.00;;
62673;SDS011;62269;47.594;17.638;2023-02-02T03:18:37;4.28;;;2.80;;
62673;SDS011;62269;47.594;17.638;2023-02-02T03:19:24;3.20;;;2.22;;
62673;SDS011;62269;47.594;17.638;2023-02-02T03:20:11;2.62;;;2.37;;
62673;SDS011;62269;47.594;17.638;2023-02-02T03:20:59;4.00;;;2.70;;
62673;SDS011;62269;47.594;17.638;2023-02-02T03:21:46;3.12;;;2.40;;
62673;SDS011;62269;47.594;17.638;2023-02-02T03:22:32;6.43;;;2.70;;
62673;SDS011;62269;47.594;17.638;2023-02-02T03:23:19;5.57;;;2.30;;
62673;SDS011;62269;47.594;17.638;2023-02-02T03:24:06;5.18;;;2.80;;
62673;SDS011;62269;47.594;17.638;2023-02-02T03:24:53;3.65;;;3.20;;
62673;SDS011;62269;47.594;17.638;2023-02-02T03:25:42;3.28;;;2.70;;
62673;SDS011;62269;47.594;17.638;2023-02-02T03:26:29;7.97;;;3.53;;
62673;SDS011;62269;47.594;17.638;2023-02-02T03:27:16;3.60;;;2.62;;
62673;SDS011;62269;47.594;17.638;2023-02-02T03:28:03;3.72;;;2.72;;
62673;SDS011;62269;47.594;17.638;2023-02-02T03:28:50;5.22;;;2.70;;
62673;SDS011;62269;47.594;17.638;2023-02-02T03:29:37;3.92;;;2.75;;
62673;SDS011;62269;47.594;17.638;2023-02-02T03:30:24;4.45;;;3.10;;
62673;SDS011;62269;47.594;17.638;2023-02-02T03:31:11;3.33;;;2.72;;
62673;SDS011;62269;47.594;17.638;2023-02-02T03:31:59;4.30;;;2.90;;
62673;SDS011;62269;47.594;17.638;2023-02-02T03:32:46;5.10;;;2.87;;
62673;SDS011;62269;47.594;17.638;2023-02-02T03:33:34;3.62;;;2.53;;
62673;SDS011;62269;47.594;17.638;2023-02-02T03:34:23;5.07;;;3.30;;
62673;SDS011;62269;47.594;17.638;2023-02-02T03:35:10;4.25;;;2.80;;
62673;SDS011;62269;47.594;17.638;2023-02-02T03:35:57;3.80;;;2.45;;
62673;SDS011;62269;47.594;17.638;2023-02-02T03:36:44;4.35;;;2.90;;
62673;SDS011;62269;47.594;17.638;2023-02-02T03:37:30;4.62;;;2.65;;
62673;SDS011;62269;47.594;17.638;2023-02-02T03:38:17;3.35;;;2.67;;
62673;SDS011;62269;47.594;17.638;2023-02-02T03:39:04;4.28;;;2.85;;
62673;SDS011;62269;47.594;17.638;2023-02-02T03:39:51;4.40;;;2.70;;
62673;SDS011;62269;47.594;17.638;2023-02-02T03:40:39;3.83;;;2.83;;
62673;SDS011;62269;47.594;17.638;2023-02-02T03:41:26;3.00;;;2.55;;
62673;SDS011;62269;47.594;17.638;2023-02-02T03:42:13;4.22;;;2.70;;
62673;SDS011;62269;47.594;17.638;2023-02-02T03:43:00;3.25;;;2.30;;
62673;SDS011;62269;47.594;17.638;2023-02-02T03:43:47;4.57;;;2.47;;
62673;SDS011;62269;47.594;17.638;2023-02-02T03:44:34;4.93;;;2.70;;
62673;SDS011;62269;47.594;17.638;2023-02-02T03:45:21;5.70;;;2.72;;
62673;SDS011;62269;47.594;17.638;2023-02-02T03:46:08;3.47;;;2.42;;
62673;SDS011;62269;47.594;17.638;2023-02-02T03:46:56;3.83;;;2.15;;
62673;SDS011;62269;47.594;17.638;2023-02-02T03:47:42;2.67;;;2.47;;
62673;SDS011;62269;47.594;17.638;2023-02-02T03:48:30;4.35;;;2.65;;
62673;SDS011;62269;47.594;17.638;2023-02-02T03:49:17;3.70;;;2.33;;
62673;SDS011;62269;47.594;17.638;2023-02-02T03:50:05;5.03;;;2.55;;
62673;SDS011;62269;47.594;17.638;2023-02-02T03:50:55;2.47;;;2.30;;
62673;SDS011;62269;47.594;17.638;2023-02-02T03:51:42;4.93;;;2.10;;
62673;SDS011;62269;47.594;17.638;2023-02-02T03:52:29;5.65;;;2.80;;
62673;SDS011;62269;47.594;17.638;2023-02-02T03:53:16;3.87;;;2.58;;
62673;SDS011;62269;47.594;17.638;2023-02-02T03:54:03;2.83;;;2.55;;
62673;SDS011;62269;47.594;17.638;2023-02-02T03:54:50;2.53;;;2.33;;
62673;SDS011;62269;47.594;17.638;2023-02-02T03:55:37;5.28;;;2.75;;
62673;SDS011;62269;47.594;17.638;2023-02-02T03:56:26;5.07;;;2.60;;
62673;SDS011;62269;47.594;17.638;2023-02-02T03:57:12;3.15;;;2.55;;
62673;SDS011;62269;47.594;17.638;2023-02-02T03:57:59;2.47;;;2.28;;
62673;SDS011;62269;47.594;17.638;2023-02-02T03:58:46;3.70;;;2.47;;
62673;SDS011;62269;47.594;17.638;2023-02-02T03:59:33;6.62;;;2.70;;
62673;SDS011;62269;47.594;17.638;2023-02-02T04:00:20;4.47;;;2.78;;
62673;SDS011;62269;47.594;17.638;2023-02-02T04:01:09;4.00;;;2.50;;
62673;SDS011;62269;47.594;17.638;2023-02-02T04:01:58;2.40;;;2.20;;
62673;SDS011;62269;47.594;17.638;2023-02-02T04:02:45;4.43;;;2.58;;
62673;SDS011;62269;47.594;17.638;2023-02-02T04:03:32;4.12;;;2.03;;
62673;SDS011;62269;47.594;17.638;2023-02-02T04:04:19;4.05;;;2.20;;
62673;SDS011;62269;47.594;17.638;2023-02-02T04:05:06;4.78;;;2.60;;
62673;SDS011;62269;47.594;17.638;2023-02-02T04:05:53;2.80;;;2.20;;
62673;SDS011;62269;47.594;17.638;2023-02-02T04:06:40;1.77;;;1.67;;
62673;SDS011;62269;47.594;17.638;2023-02-02T04:07:27;1.83;;;1.73;;
62673;SDS011;62269;47.594;17.638;2023-02-02T04:08:14;2.20;;;2.10;;
62673;SDS011;62269;47.594;17.638;2023-02-02T04:09:01;3.53;;;2.28;;
62673;SDS011;62269;47.594;17.638;2023-02-02T04:09:48;3.12;;;2.70;;
62673;SDS011;62269;47.594;17.638;2023-02-02T04:10:35;2.05;;;1.85;;
62673;SDS011;62269;47.594;17.638;2023-02-02T04:11:24;2.12;;;1.90;;
62673;SDS011;62269;47.594;17.638;2023-02-02T04:12:11;3.00;;;2.00;;
62673;SDS011;62269;47.594;17.638;2023-02-02T04:12:58;2.42;;;2.22;;
62673;SDS011;62269;47.594;17.638;2023-02-02T04:13:44;1.67;;;1.58;;
62673;SDS011;62269;47.594;17.638;2023-02-02T04:14:31;2.55;;;1.75;;
62673;SDS011;62269;47.594;17.638;2023-02-02T04:15:18;2.37;;;2.17;;
62673;SDS011;62269;47.594;17.638;2023-02-02T04:16:05;1.77;;;1.67;;
62673;SDS011;62269;47.594;17.638;2023-02-02T04:16:52;2.60;;;2.22;;
62673;SDS011;62269;47.594;17.638;2023-02-02T04:17:39;1.70;;;1.60;;
62673;SDS011;62269;47.594;17.638;2023-02-02T04:18:27;1.60;;;1.60;;
62673;SDS011;62269;47.594;17.638;2023-02-02T04:19:14;2.33;;;2.12;;
62673;SDS011;62269;47.594;17.638;2023-02-02T04:20:02;2.42;;;2.28;;
62673;SDS011;62269;47.594;17.638;2023-02-02T04:20:54;2.15;;;1.62;;
62673;SDS011;62269;47.594;17.638;2023-02-02T04:21:42;1.95;;;1.85;;
62673;SDS011;62269;47.594;17.638;2023-02-02T04:22:29;1.65;;;1.55;;
62673;SDS011;62269;47.594;17.638;2023-02-02T04:23:16;2.42;;;2.22;;
62673;SDS011;62269;47.594;17.638;2023-02-02T04:24:04;2.00;;;1.90;;
62673;SDS011;62269;47.594;17.638;2023-02-02T04:24:52;2.72;;;2.47;;
62673;SDS011;62269;47.594;17.638;2023-02-02T04:25:47;2.55;;;2.08;;
62673;SDS011;62269;47.594;17.638;2023-02-02T04:26:34;3.03;;;2.40;;
62673;SDS011;62269;47.594;17.638;2023-02-02T04:27:21;2.17;;;2.03;;
62673;SDS011;62269;47.594;17.638;2023-02-02T04:28:08;2.53;;;2.33;;
62673;SDS011;62269;47.594;17.638;2023-02-02T04:28:55;2.90;;;2.70;;
62673;SDS011;62269;47.594;17.638;2023-02-02T04:29:42;3.08;;;2.50;;
62673;SDS011;62269;47.594;17.638;2023-02-02T04:30:29;2.60;;;2.40;;
62673;SDS011;62269;47.594;17.638;2023-02-02T04:31:16;3.10;;;2.30;;
62673;SDS011;62269;47.594;17.638;2023-02-02T04:32:03;2.05;;;1.95;;
62673;SDS011;62269;47.594;17.638;2023-02-02T04:32:50;2.62;;;2.40;;
62673;SDS011;62269;47.594;17.638;2023-02-02T04:33:37;2.80;;;2.58;;
62673;SDS011;62269;47.594;17.638;2023-02-02T04:34:24;2.75;;;2.58;;
62673;SDS011;62269;47.594;17.638;2023-02-02T04:35:11;3.40;;;2.37;;
62673;SDS011;62269;47.594;17.638;2023-02-02T04:35:58;2.72;;;2.53;;
62673;SDS011;62269;47.594;17.638;2023-02-02T04:36:45;2.78;;;2.58;;
62673;SDS011;62269;47.594;17.638;2023-02-02T04:37:33;3.97;;;2.72;;
62673;SDS011;62269;47.594;17.638;2023-02-02T04:38:20;2.70;;;2.50;;
62673;SDS011;62269;47.594;17.638;2023-02-02T04:39:09;2.85;;;2.62;;
62673;SDS011;62269;47.594;17.638;2023-02-02T04:39:57;3.42;;;3.08;;
62673;SDS011;62269;47.594;17.638;2023-02-02T04:40:44;2.92;;;2.53;;
62673;SDS011;62269;47.594;17.638;2023-02-02T04:41:32;3.37;;;2.90;;
62673;SDS011;62269;47.594;17.638;2023-02-02T04:42:19;4.18;;;2.78;;
62673;SDS011;62269;47.594;17.638;2023-02-02T04:43:06;2.85;;;2.55;;
62673;SDS011;62269;47.594;17.638;2023-02-02T04:43:53;5.12;;;2.95;;
62673;SDS011;62269;47.594;17.638;2023-02-02T04:44:40;4.53;;;3.58;;
62673;SDS011;62269;47.594;17.638;2023-02-02T04:45:29;2.15;;;2.05;;
62673;SDS011;62269;47.594;17.638;2023-02-02T04:46:16;2.95;;;2.65;;
62673;SDS011;62269;47.594;17.638;2023-02-02T04:47:03;3.10;;;2.90;;
62673;SDS011;62269;47.594;17.638;2023-02-02T04:47:50;3.28;;;2.67;;
62673;SDS011;62269;47.594;17.638;2023-02-02T04:48:37;2.85;;;2.65;;
62673;SDS011;62269;47.594;17.638;2023-02-02T04:49:24;3.45;;;2.80;;
62673;SDS011;62269;47.594;17.638;2023-02-02T04:50:11;2.28;;;2.15;;
62673;SDS011;62269;47.594;17.638;2023-02-02T04:50:59;2.87;;;2.62;;
62673;SDS011;62269;47.594;17.638;2023-02-02T04:51:46;2.90;;;2.70;;
62673;SDS011;62269;47.594;17.638;2023-02-02T04:52:35;3.25;;;2.72;;
62673;SDS011;62269;47.594;17.638;2023-02-02T04:53:22;3.62;;;3.03;;
62673;SDS011;62269;47.594;17.638;2023-02-02T04:54:09;2.70;;;2.50;;
62673;SDS011;62269;47.594;17.638;2023-02-02T04:54:56;2.75;;;2.55;;
62673;SDS011;62269;47.594;17.638;2023-02-02T04:55:43;3.22;;;2.62;;
62673;SDS011;62269;47.594;17.638;2023-02-02T04:56:30;2.92;;;2.42;;
62673;SDS011;62269;47.594;17.638;2023-02-02T04:57:17;2.65;;;2.45;;
62673;SDS011;62269;47.594;17.638;2023-02-02T04:58:04;3.12;;;2.53;;
62673;SDS011;62269;47.594;17.638;2023-02-02T04:58:52;5.72;;;3.00;;
62673;SDS011;62269;47.594;17.638;2023-02-02T04:59:40;2.87;;;2.62;;
62673;SDS011;62269;47.594;17.638;2023-02-02T05:00:27;2.78;;;2.58;;
62673;SDS011;62269;47.594;17.638;2023-02-02T05:01:18;3.03;;;2.72;;
62673;SDS011;62269;47.594;17.638;2023-02-02T05:02:05;3.37;;;2.42;;
62673;SDS011;62269;47.594;17.638;2023-02-02T05:02:52;2.90;;;2.70;;
62673;SDS011;62269;47.594;17.638;2023-02-02T05:03:39;3.55;;;3.20;;
62673;SDS011;62269;47.594;17.638;2023-02-02T05:04:26;3.00;;;2.80;;
62673;SDS011;62269;47.594;17.638;2023-02-02T05:05:13;3.58;;;3.28;;
62673;SDS011;62269;47.594;17.638;2023-02-02T05:06:01;3.45;;;3.25;;
62673;SDS011;62269;47.594;17.638;2023-02-02T05:06:48;4.75;;;3.45;;
62673;SDS011;62269;47.594;17.638;2023-02-02T05:07:35;3.20;;;3.00;;
62673;SDS011;62269;47.594;17.638;2023-02-02T05:08:22;3.10;;;2.80;;
62673;SDS011;62269;47.594;17.638;2023-02-02T05:09:09;3.72;;;3.12;;
62673;SDS011;62269;47.594;17.638;2023-02-02T05:09:56;3.80;;;2.85;;
62673;SDS011;62269;47.594;17.638;2023-02-02T05:10:43;2.92;;;2.72;;
62673;SDS011;62269;47.594;17.638;2023-02-02T05:11:30;3.85;;;2.92;;
62673;SDS011;62269;47.594;17.638;2023-02-02T05:12:17;3.40;;;3.00;;
62673;SDS011;62269;47.594;17.638;2023-02-02T05:13:04;3.75;;;2.92;;
62673;SDS011;62269;47.594;17.638;2023-02-02T05:13:52;3.03;;;2.83;;
62673;SDS011;62269;47.594;17.638;2023-02-02T05:14:39;3.00;;;2.80;;